Time;durP1;ratioP1;P1;durP2;ratioP2;P2;SDS_P1;SDS_P2;PMS_P1;PMS_P2;Temp;Humidity;BMP_temperature;BMP_pressure;BME280_temperature;BME280_humidity;BME280_pressure;Samples;Min_cycle;Max_cycle;Signal;HPM_P1;HPM_P2
2022/09/21 00:00:43;;;;;;;17.70;11.30;;;;;;;;;;5034287;28;20199;-68
2022/09/21 00:03:09;;;;;;;14.57;9.40;;;;;;;;;;5020081;28;20213;-68
2022/09/21 00:05:35;;;;;;;19.13;10.40;;;;;;;;;;5021701;28;20179;-69
2022/09/21 00:08:02;;;;;;;12.67;8.53;;;;;;;;;;5040321;28;20199;-68
2022/09/21 00:10:28;;;;;;;13.03;8.80;;;;;;;;;;5021966;28;20647;-68
2022/09/21 00:12:55;;;;;;;14.90;9.13;;;;;;;;;;5019797;28;20187;-69
2022/09/21 00:15:21;;;;;;;15.80;10.00;;;;;;;;;;5034492;28;20190;-68
2022/09/21 00:17:47;;;;;;;18.43;11.50;;;;;;;;;;5015975;28;20202;-68
2022/09/21 00:20:14;;;;;;;23.07;11.37;;;;;;;;;;5033909;28;20186;-68
2022/09/21 00:22:40;;;;;;;20.27;12.13;;;;;;;;;;5033816;28;20204;-69
2022/09/21 00:25:07;;;;;;;21.40;13.43;;;;;;;;;;5015482;28;20245;-68
2022/09/21 00:27:33;;;;;;;48.60;22.60;;;;;;;;;;5015816;28;20205;-68
2022/09/21 00:30:02;;;;;;;41.47;21.93;;;;;;;;;;5033566;28;20179;-68
2022/09/21 00:32:30;;;;;;;33.67;16.53;;;;;;;;;;5015876;28;20187;-69
2022/09/21 00:34:56;;;;;;;31.77;17.23;;;;;;;;;;5033864;28;20543;-68
2022/09/21 00:37:22;;;;;;;32.97;16.90;;;;;;;;;;5033257;28;20214;-68
2022/09/21 00:39:48;;;;;;;30.87;17.47;;;;;;;;;;5033572;28;20175;-68
2022/09/21 00:42:33;;;;;;;36.77;19.27;;;;;;;;;;5033375;28;20203;-69
2022/09/21 00:44:59;;;;;;;36.20;19.87;;;;;;;;;;5015604;28;20689;-68
2022/09/21 00:47:28;;;;;;;36.23;20.00;;;;;;;;;;5033131;28;20222;-68
2022/09/21 00:49:56;;;;;;;35.47;18.37;;;;;;;;;;5015362;28;20187;-68
2022/09/21 00:52:23;;;;;;;28.90;16.47;;;;;;;;;;5033049;28;20182;-68
2022/09/21 00:54:54;;;;;;;27.27;15.37;;;;;;;;;;5015333;28;20186;-68
2022/09/21 00:57:21;;;;;;;23.53;14.07;;;;;;;;;;5032933;28;20675;-68
2022/09/21 00:59:48;;;;;;;23.20;13.23;;;;;;;;;;5015445;28;20639;-68
2022/09/21 01:02:14;;;;;;;25.50;12.33;;;;;;;;;;5015276;28;20679;-68
2022/09/21 01:04:40;;;;;;;35.43;16.20;;;;;;;;;;5015332;28;20294;-68
2022/09/21 01:07:11;;;;;;;31.33;16.80;;;;;;;;;;5032938;28;20199;-68
2022/09/21 01:09:37;;;;;;;25.43;13.17;;;;;;;;;;5015371;28;20194;-68
2022/09/21 01:12:10;;;;;;;21.63;12.93;;;;;;;;;;5015361;28;20281;-68
2022/09/21 01:15:09;;;;;;;24.57;12.40;;;;;;;;;;5015377;28;20186;-69
2022/09/21 01:17:53;;;;;;;17.90;10.10;;;;;;;;;;4962303;28;20218;-68
2022/09/21 01:20:35;;;;;;;17.83;9.43;;;;;;;;;;5032783;28;20188;-68
2022/09/21 01:23:26;;;;;;;15.90;8.67;;;;;;;;;;5032878;28;20191;-68
2022/09/21 01:26:00;;;;;;;17.83;7.83;;;;;;;;;;5033381;28;20163;-68
2022/09/21 01:28:41;;;;;;;17.80;8.00;;;;;;;;;;5032958;28;20170;-69
2022/09/21 01:31:09;;;;;;;18.13;8.87;;;;;;;;;;5015087;28;20193;-68
2022/09/21 01:33:39;;;;;;;17.87;8.20;;;;;;;;;;5014998;28;20183;-68
2022/09/21 01:36:10;;;;;;;15.10;9.33;;;;;;;;;;5016461;28;20229;-68
2022/09/21 01:38:40;;;;;;;17.10;9.90;;;;;;;;;;5036567;28;20654;-68
2022/09/21 01:41:09;;;;;;;14.40;8.97;;;;;;;;;;5036396;28;20210;-68
2022/09/21 01:43:37;;;;;;;18.03;8.83;;;;;;;;;;5036348;28;20565;-68
2022/09/21 01:46:04;;;;;;;13.43;8.60;;;;;;;;;;5036540;28;20202;-68
2022/09/21 01:48:34;;;;;;;14.30;8.67;;;;;;;;;;5036243;28;20167;-68
2022/09/21 01:51:00;;;;;;;18.83;8.83;;;;;;;;;;5018441;28;20183;-68
2022/09/21 01:53:26;;;;;;;19.00;8.17;;;;;;;;;;5036174;28;20254;-68
2022/09/21 01:55:54;;;;;;;13.67;7.77;;;;;;;;;;5036190;28;20713;-68
2022/09/21 01:58:28;;;;;;;16.67;8.80;;;;;;;;;;5018317;28;20187;-69
2022/09/21 02:00:56;;;;;;;17.83;8.77;;;;;;;;;;5018494;28;20644;-68
2022/09/21 02:03:41;;;;;;;10.93;7.90;;;;;;;;;;5036004;28;20199;-68
2022/09/21 02:06:07;;;;;;;12.67;7.60;;;;;;;;;;5036105;28;20703;-68
2022/09/21 02:08:33;;;;;;;10.10;7.67;;;;;;;;;;5035953;28;20254;-69
2022/09/21 02:11:01;;;;;;;13.17;8.00;;;;;;;;;;5036392;28;20179;-69
2022/09/21 02:13:30;;;;;;;13.30;7.97;;;;;;;;;;5036053;28;20183;-68
2022/09/21 02:16:05;;;;;;;15.13;8.50;;;;;;;;;;5035611;28;20210;-68
2022/09/21 02:18:39;;;;;;;13.40;8.93;;;;;;;;;;5035738;28;20678;-68
2022/09/21 02:21:10;;;;;;;16.37;8.67;;;;;;;;;;5017952;28;20182;-69
2022/09/21 02:23:56;;;;;;;13.97;8.83;;;;;;;;;;5036226;28;20196;-69
2022/09/21 02:26:26;;;;;;;14.77;8.47;;;;;;;;;;5035599;28;20286;-69
2022/09/21 02:28:52;;;;;;;12.33;8.43;;;;;;;;;;5035584;28;20186;-69
2022/09/21 02:31:40;;;;;;;14.27;7.73;;;;;;;;;;5035609;28;20171;-69
2022/09/21 02:34:06;;;;;;;12.80;7.90;;;;;;;;;;5035760;28;20178;-69
2022/09/21 02:36:49;;;;;;;13.10;8.67;;;;;;;;;;5017943;28;20223;-68
2022/09/21 02:39:21;;;;;;;13.53;8.80;;;;;;;;;;5035474;28;20229;-69
2022/09/21 02:41:54;;;;;;;15.03;8.70;;;;;;;;;;5035503;28;20199;-69
2022/09/21 02:44:31;;;;;;;12.33;8.30;;;;;;;;;;5035495;28;20186;-68
2022/09/21 02:47:03;;;;;;;10.30;8.23;;;;;;;;;;5034877;28;20237;-70
2022/09/21 02:49:34;;;;;;;14.90;8.50;;;;;;;;;;5035582;28;20229;-69
2022/09/21 02:52:04;;;;;;;11.33;8.37;;;;;;;;;;5017439;28;20194;-69
2022/09/21 02:54:31;;;;;;;15.67;8.53;;;;;;;;;;5035207;28;20179;-68
2022/09/21 02:56:58;;;;;;;12.87;8.43;;;;;;;;;;5035195;28;20616;-68
2022/09/21 02:59:25;;;;;;;16.80;8.10;;;;;;;;;;5035230;28;20215;-68
2022/09/21 03:01:51;;;;;;;13.17;7.77;;;;;;;;;;5034870;28;20206;-69
2022/09/21 03:04:17;;;;;;;12.40;8.17;;;;;;;;;;5034751;28;20186;-70
2022/09/21 03:06:43;;;;;;;10.07;7.43;;;;;;;;;;5034612;28;20199;-68
2022/09/21 03:09:09;;;;;;;15.03;7.87;;;;;;;;;;5034706;28;20186;-69
2022/09/21 03:11:35;;;;;;;10.63;8.23;;;;;;;;;;5034784;28;20222;-69
2022/09/21 03:14:05;;;;;;;13.50;7.53;;;;;;;;;;5035130;28;20174;-69
2022/09/21 03:16:31;;;;;;;12.57;8.53;;;;;;;;;;5016789;28;20235;-68
2022/09/21 03:18:57;;;;;;;13.33;9.40;;;;;;;;;;5034497;28;20186;-68
2022/09/21 03:21:23;;;;;;;14.97;10.13;;;;;;;;;;5034475;28;20187;-69
2022/09/21 03:23:49;;;;;;;15.77;10.47;;;;;;;;;;5016726;28;20242;-68
2022/09/21 03:26:15;;;;;;;13.97;9.00;;;;;;;;;;5034503;28;20274;-68
2022/09/21 03:28:41;;;;;;;14.77;9.93;;;;;;;;;;5034425;28;20309;-69
2022/09/21 03:31:07;;;;;;;16.87;10.50;;;;;;;;;;5034444;28;20668;-68
2022/09/21 03:33:33;;;;;;;12.97;10.20;;;;;;;;;;5034247;28;20185;-69
2022/09/21 03:35:59;;;;;;;13.67;10.13;;;;;;;;;;5016270;28;20186;-68
2022/09/21 03:38:25;;;;;;;17.03;9.57;;;;;;;;;;5034724;28;20257;-68
2022/09/21 03:40:52;;;;;;;14.93;9.30;;;;;;;;;;5034130;28;20175;-68
2022/09/21 03:43:18;;;;;;;13.47;9.70;;;;;;;;;;5033976;28;20198;-68
2022/09/21 03:45:44;;;;;;;12.23;9.33;;;;;;;;;;5033871;28;20181;-68
2022/09/21 03:50:48;;;;;;;15.67;10.90;;;;;;;;;;5034347;28;20219;-67
2022/09/21 03:53:14;;;;;;;16.37;8.63;;;;;;;;;;5034544;28;20578;-67
2022/09/21 03:55:40;;;;;;;11.17;9.07;;;;;;;;;;5016547;28;20179;-67
2022/09/21 03:58:06;;;;;;;12.10;9.27;;;;;;;;;;5034284;28;20188;-67
2022/09/21 04:00:33;;;;;;;18.50;9.57;;;;;;;;;;5033040;28;20199;-66
2022/09/21 04:02:59;;;;;;;16.03;9.10;;;;;;;;;;5033615;28;20678;-66
2022/09/21 04:05:26;;;;;;;12.37;8.93;;;;;;;;;;5033695;28;20214;-67
2022/09/21 04:07:53;;;;;;;13.30;8.83;;;;;;;;;;5033837;28;20179;-68
2022/09/21 04:10:20;;;;;;;14.77;9.00;;;;;;;;;;5015875;28;20264;-68
2022/09/21 04:12:46;;;;;;;13.23;8.90;;;;;;;;;;5016003;28;20604;-68
2022/09/21 04:15:14;;;;;;;15.63;9.80;;;;;;;;;;5015799;28;20179;-69
2022/09/21 04:17:40;;;;;;;12.50;9.10;;;;;;;;;;5033758;28;20183;-68
2022/09/21 04:20:07;;;;;;;15.17;9.67;;;;;;;;;;5033463;28;20199;-68
2022/09/21 04:22:33;;;;;;;13.73;10.10;;;;;;;;;;5033481;28;20206;-69
2022/09/21 04:25:00;;;;;;;14.13;9.33;;;;;;;;;;5033523;28;20178;-67
2022/09/21 04:27:26;;;;;;;14.40;10.20;;;;;;;;;;5033804;28;20254;-69
2022/09/21 04:29:52;;;;;;;15.60;9.73;;;;;;;;;;5033589;28;20230;-68
2022/09/21 04:32:18;;;;;;;13.30;9.80;;;;;;;;;;5033682;28;20187;-68
2022/09/21 04:34:44;;;;;;;15.00;8.80;;;;;;;;;;5033314;28;20175;-68
2022/09/21 04:37:13;;;;;;;14.23;9.67;;;;;;;;;;5033314;28;20179;-68
2022/09/21 04:39:39;;;;;;;12.30;9.20;;;;;;;;;;5033349;28;20282;-68
2022/09/21 04:42:05;;;;;;;18.20;10.27;;;;;;;;;;5015569;28;20230;-68
2022/09/21 04:44:31;;;;;;;12.77;9.50;;;;;;;;;;5033542;28;20179;-68
2022/09/21 04:46:58;;;;;;;16.50;9.40;;;;;;;;;;5033529;28;20181;-68
2022/09/21 04:49:24;;;;;;;17.20;9.80;;;;;;;;;;5033090;28;20635;-68
2022/09/21 04:51:50;;;;;;;12.00;9.90;;;;;;;;;;5033331;28;20232;-69
2022/09/21 04:54:16;;;;;;;17.50;10.40;;;;;;;;;;5015879;28;20580;-68
2022/09/21 04:56:42;;;;;;;17.33;11.00;;;;;;;;;;5033320;28;20175;-70
2022/09/21 04:59:08;;;;;;;17.10;10.57;;;;;;;;;;5032953;28;20206;-68
2022/09/21 05:01:34;;;;;;;21.27;10.90;;;;;;;;;;5033105;28;20671;-68
2022/09/21 05:04:01;;;;;;;13.50;10.00;;;;;;;;;;5015404;28;20179;-68
2022/09/21 05:06:28;;;;;;;16.80;10.30;;;;;;;;;;5033601;28;20599;-69
2022/09/21 05:11:39;;;;;;;16.40;10.53;;;;;;;;;;5036337;28;20181;-68
2022/09/21 05:14:06;;;;;;;12.90;10.60;;;;;;;;;;5037068;28;20175;-68
2022/09/21 05:16:31;;;;;;;14.80;9.97;;;;;;;;;;5037068;28;20203;-68
2022/09/21 05:18:57;;;;;;;15.37;9.67;;;;;;;;;;5037384;28;20222;-69
2022/09/21 05:21:24;;;;;;;13.57;10.90;;;;;;;;;;5036843;28;20179;-69
2022/09/21 05:23:50;;;;;;;17.47;10.13;;;;;;;;;;5037063;28;20202;-69
2022/09/21 05:26:16;;;;;;;13.77;10.50;;;;;;;;;;5037000;28;20258;-69
2022/09/21 05:28:42;;;;;;;15.23;10.60;;;;;;;;;;5036650;28;20230;-69
2022/09/21 05:31:18;;;;;;;15.90;10.80;;;;;;;;;;5018994;28;20233;-68
2022/09/21 05:33:56;;;;;;;18.70;10.40;;;;;;;;;;5037022;28;20266;-67
2022/09/21 05:36:40;;;;;;;11.30;9.73;;;;;;;;;;5037439;28;20221;-69
2022/09/21 05:39:06;;;;;;;14.37;10.83;;;;;;;;;;5036908;28;20734;-69
2022/09/21 05:41:33;;;;;;;16.87;10.93;;;;;;;;;;5036458;28;20250;-68
2022/09/21 05:43:59;;;;;;;16.97;10.27;;;;;;;;;;5036710;28;20186;-69
2022/09/21 05:46:39;;;;;;;15.13;10.10;;;;;;;;;;5019077;28;20193;-67
2022/09/21 05:49:08;;;;;;;16.90;10.73;;;;;;;;;;5036567;28;20225;-69
2022/09/21 05:51:54;;;;;;;16.67;10.13;;;;;;;;;;5018958;28;20531;-69
2022/09/21 05:54:26;;;;;;;20.30;10.00;;;;;;;;;;5035940;28;20195;-67
2022/09/21 05:56:57;;;;;;;20.07;11.40;;;;;;;;;;5018598;28;20194;-69
2022/09/21 05:59:33;;;;;;;17.37;10.23;;;;;;;;;;5018542;28;20654;-69
2022/09/21 06:01:59;;;;;;;18.57;10.47;;;;;;;;;;5036121;28;20209;-68
2022/09/21 06:04:25;;;;;;;22.13;10.10;;;;;;;;;;5018600;28;20179;-67
2022/09/21 06:06:51;;;;;;;17.57;10.00;;;;;;;;;;5036224;28;20171;-69
2022/09/21 06:09:19;;;;;;;13.83;9.70;;;;;;;;;;5036408;28;20651;-67
2022/09/21 06:11:45;;;;;;;15.60;9.23;;;;;;;;;;5036571;28;20598;-66
2022/09/21 06:14:11;;;;;;;14.23;9.73;;;;;;;;;;5037188;28;20183;-68
2022/09/21 06:16:38;;;;;;;12.57;9.13;;;;;;;;;;5019283;28;20662;-67
2022/09/21 06:19:04;;;;;;;15.43;10.23;;;;;;;;;;5037032;28;20693;-67
2022/09/21 06:21:30;;;;;;;14.87;10.10;;;;;;;;;;5018973;28;20182;-67
2022/09/21 06:23:56;;;;;;;15.60;9.60;;;;;;;;;;5018299;28;20178;-68
2022/09/21 06:26:21;;;;;;;13.47;8.40;;;;;;;;;;5018795;28;20218;-67
2022/09/21 06:28:47;;;;;;;14.93;8.17;;;;;;;;;;5018357;28;20744;-67
2022/09/21 06:31:13;;;;;;;14.03;7.73;;;;;;;;;;5036183;28;20548;-67
2022/09/21 06:33:39;;;;;;;10.00;6.70;;;;;;;;;;5036302;28;20598;-67
2022/09/21 06:36:05;;;;;;;7.97;6.50;;;;;;;;;;5036169;28;20186;-68
2022/09/21 06:38:34;;;;;;;9.87;6.90;;;;;;;;;;5035662;28;20237;-67
2022/09/21 06:41:03;;;;;;;10.47;6.60;;;;;;;;;;5035427;28;20172;-68
2022/09/21 06:43:29;;;;;;;14.33;6.57;;;;;;;;;;5035280;28;20306;-67
2022/09/21 06:45:56;;;;;;;10.10;6.23;;;;;;;;;;5035455;28;20177;-68
2022/09/21 06:48:22;;;;;;;12.77;6.87;;;;;;;;;;5017554;28;20191;-68
2022/09/21 06:50:49;;;;;;;14.20;7.50;;;;;;;;;;5035201;28;20182;-68
2022/09/21 06:53:15;;;;;;;13.07;7.33;;;;;;;;;;5017604;28;20663;-67
2022/09/21 06:55:41;;;;;;;13.20;7.23;;;;;;;;;;5035319;28;20256;-68
2022/09/21 06:58:07;;;;;;;15.23;8.50;;;;;;;;;;5017886;28;20197;-68
2022/09/21 07:00:33;;;;;;;12.57;7.00;;;;;;;;;;5034896;28;20203;-68
2022/09/21 07:02:59;;;;;;;13.07;7.27;;;;;;;;;;5034812;28;20207;-68
2022/09/21 07:05:25;;;;;;;14.37;7.87;;;;;;;;;;5034872;28;20171;-67
2022/09/21 07:07:56;;;;;;;14.57;8.13;;;;;;;;;;5034764;28;20175;-68
2022/09/21 07:10:22;;;;;;;13.93;7.97;;;;;;;;;;5034682;28;20225;-68
2022/09/21 07:12:50;;;;;;;15.70;8.07;;;;;;;;;;5016995;28;20179;-68
2022/09/21 07:15:18;;;;;;;16.47;8.53;;;;;;;;;;5016900;28;20664;-68
2022/09/21 07:17:44;;;;;;;14.43;8.63;;;;;;;;;;5035003;28;20179;-68
2022/09/21 07:20:10;;;;;;;15.57;8.40;;;;;;;;;;5034701;28;20660;-68
2022/09/21 07:22:36;;;;;;;19.10;8.90;;;;;;;;;;5016651;28;20207;-68
2022/09/21 07:25:04;;;;;;;19.23;8.40;;;;;;;;;;5016586;28;20179;-68
2022/09/21 07:27:30;;;;;;;13.10;8.43;;;;;;;;;;5017762;28;20183;-68
2022/09/21 07:29:57;;;;;;;19.03;9.60;;;;;;;;;;5034285;28;20195;-68
2022/09/21 07:32:24;;;;;;;15.93;9.00;;;;;;;;;;5016572;28;20278;-68
2022/09/21 07:34:55;;;;;;;15.80;9.50;;;;;;;;;;5034156;28;20181;-68
2022/09/21 07:37:22;;;;;;;18.33;9.33;;;;;;;;;;5034175;28;20160;-68
2022/09/21 07:39:49;;;;;;;14.40;8.97;;;;;;;;;;5034266;28;20614;-65
2022/09/21 07:42:14;;;;;;;17.57;9.60;;;;;;;;;;5016419;28;20302;-66
2022/09/21 07:44:41;;;;;;;26.93;10.87;;;;;;;;;;5016682;28;20620;-65
2022/09/21 07:47:07;;;;;;;21.63;10.07;;;;;;;;;;5034272;28;20529;-66
2022/09/21 07:49:33;;;;;;;18.27;9.00;;;;;;;;;;5034137;28;20214;-66
2022/09/21 07:51:59;;;;;;;18.83;9.90;;;;;;;;;;5034292;28;20205;-66
2022/09/21 07:54:25;;;;;;;19.30;10.17;;;;;;;;;;5033893;28;20266;-66
2022/09/21 07:59:36;;;;;;;17.57;9.40;;;;;;;;;;5034034;28;20206;-66
2022/09/21 08:02:02;;;;;;;16.17;9.43;;;;;;;;;;5033651;28;20605;-66
2022/09/21 08:04:28;;;;;;;20.40;9.97;;;;;;;;;;5033676;28;20183;-66
2022/09/21 08:06:54;;;;;;;20.90;10.40;;;;;;;;;;5033664;28;20243;-67
2022/09/21 08:09:20;;;;;;;19.70;9.83;;;;;;;;;;5033693;28;20203;-67
2022/09/21 08:11:46;;;;;;;18.93;10.17;;;;;;;;;;5015816;28;20190;-68
2022/09/21 08:14:18;;;;;;;18.97;9.37;;;;;;;;;;5015873;28;20261;-67
2022/09/21 08:16:44;;;;;;;18.43;9.17;;;;;;;;;;5033596;28;20159;-66
2022/09/21 08:19:10;;;;;;;17.50;10.33;;;;;;;;;;5033332;28;20197;-67
2022/09/21 08:21:36;;;;;;;15.17;10.00;;;;;;;;;;5033752;28;20175;-68
2022/09/21 08:24:02;;;;;;;15.30;10.33;;;;;;;;;;5016257;28;20187;-68
2022/09/21 08:26:28;;;;;;;16.97;8.70;;;;;;;;;;5015750;28;20179;-69
2022/09/21 08:28:57;;;;;;;17.67;9.40;;;;;;;;;;5015603;28;20198;-68
2022/09/21 08:31:23;;;;;;;15.07;9.87;;;;;;;;;;5033425;28;20262;-66
2022/09/21 08:33:49;;;;;;;15.47;9.73;;;;;;;;;;5015552;28;20193;-66
2022/09/21 08:36:15;;;;;;;17.43;10.03;;;;;;;;;;5033441;28;20655;-66
2022/09/21 08:38:41;;;;;;;20.03;10.43;;;;;;;;;;5015343;28;20203;-66
2022/09/21 08:41:16;;;;;;;17.77;9.97;;;;;;;;;;5033165;28;20175;-67
2022/09/21 08:43:48;;;;;;;15.67;8.90;;;;;;;;;;5015408;28;20214;-66
2022/09/21 08:46:16;;;;;;;18.23;9.57;;;;;;;;;;5032714;28;20175;-66
2022/09/21 08:48:45;;;;;;;15.87;9.37;;;;;;;;;;5015042;28;20195;-66
2022/09/21 08:51:12;;;;;;;22.27;10.27;;;;;;;;;;5015408;28;20174;-66
2022/09/21 08:53:40;;;;;;;17.90;10.27;;;;;;;;;;5033070;28;20182;-67
2022/09/21 08:56:08;;;;;;;21.73;10.60;;;;;;;;;;5033263;28;20252;-67
2022/09/21 08:58:39;;;;;;;18.90;10.33;;;;;;;;;;5032879;28;20198;-66
2022/09/21 09:01:28;;;;;;;18.93;9.27;;;;;;;;;;5032958;28;20532;-66
2022/09/21 09:04:00;;;;;;;16.57;9.10;;;;;;;;;;5032961;28;20559;-66
2022/09/21 09:06:33;;;;;;;23.53;12.33;;;;;;;;;;5015222;28;20179;-66
2022/09/21 09:08:58;;;;;;;29.43;14.30;;;;;;;;;;5033710;28;20621;-66
2022/09/21 09:11:31;;;;;;;27.33;12.63;;;;;;;;;;5034101;28;20191;-66
2022/09/21 09:14:09;;;;;;;18.80;9.23;;;;;;;;;;5033342;28;20227;-66
2022/09/21 09:16:44;;;;;;;15.43;7.73;;;;;;;;;;5033640;28;20198;-66
2022/09/21 09:19:19;;;;;;;10.53;6.77;;;;;;;;;;5033175;28;20290;-66
2022/09/21 09:21:45;;;;;;;13.80;5.93;;;;;;;;;;5032793;28;20210;-66
2022/09/21 09:24:14;;;;;;;10.73;6.27;;;;;;;;;;5032758;28;20187;-66
2022/09/21 09:26:52;;;;;;;8.40;5.00;;;;;;;;;;5032671;28;20214;-66
2022/09/21 09:29:31;;;;;;;6.37;3.23;;;;;;;;;;5032703;28;20193;-67
2022/09/21 09:31:58;;;;;;;9.83;4.60;;;;;;;;;;5014889;28;20679;-67
2022/09/21 09:34:30;;;;;;;9.80;3.73;;;;;;;;;;5032940;28;20543;-67
2022/09/21 09:36:58;;;;;;;5.60;3.40;;;;;;;;;;5033119;28;20172;-67
2022/09/21 09:39:24;;;;;;;6.93;2.57;;;;;;;;;;5032568;28;20567;-67
2022/09/21 09:41:53;;;;;;;6.60;2.90;;;;;;;;;;5032603;28;20652;-67
2022/09/21 09:44:38;;;;;;;8.43;3.60;;;;;;;;;;5014901;28;20175;-67
2022/09/21 09:47:04;;;;;;;7.87;3.07;;;;;;;;;;5032692;28;20251;-67
2022/09/21 09:49:41;;;;;;;8.80;3.80;;;;;;;;;;5057862;22;20319;-66
2022/09/21 09:52:11;;;;;;;4.73;2.90;;;;;;;;;;4995025;28;20570;-69
2022/09/21 09:54:37;;;;;;;8.87;3.40;;;;;;;;;;4995714;28;20184;-69
2022/09/21 09:57:03;;;;;;;9.40;3.33;;;;;;;;;;5013617;28;20180;-69
2022/09/21 09:59:35;;;;;;;6.70;2.77;;;;;;;;;;5016958;28;20183;-69
2022/09/21 10:02:06;;;;;;;7.17;3.10;;;;;;;;;;5016829;28;20198;-70
2022/09/21 10:04:33;;;;;;;5.63;3.10;;;;;;;;;;5016960;28;20198;-70
2022/09/21 10:06:59;;;;;;;7.27;2.67;;;;;;;;;;5016838;28;20184;-70
2022/09/21 10:09:27;;;;;;;7.67;2.50;;;;;;;;;;5016466;28;20218;-69
2022/09/21 10:11:56;;;;;;;6.03;2.30;;;;;;;;;;5016232;28;20237;-69
2022/09/21 10:14:23;;;;;;;5.07;2.80;;;;;;;;;;5016464;28;20175;-70
2022/09/21 10:16:50;;;;;;;5.90;2.17;;;;;;;;;;5016289;28;20368;-71
2022/09/21 10:19:18;;;;;;;4.77;2.33;;;;;;;;;;5016975;28;20198;-69
2022/09/21 10:21:45;;;;;;;5.27;2.30;;;;;;;;;;4998568;28;20620;-69
2022/09/21 10:24:44;;;;;;;7.77;2.50;;;;;;;;;;5016380;28;20258;-69
2022/09/21 10:27:10;;;;;;;10.03;3.07;;;;;;;;;;5001058;28;20220;-70
2022/09/21 10:29:40;;;;;;;10.30;2.63;;;;;;;;;;5015956;28;20258;-69
2022/09/21 10:32:09;;;;;;;8.37;2.87;;;;;;;;;;5015758;28;20229;-70
2022/09/21 10:34:35;;;;;;;5.67;2.70;;;;;;;;;;5015796;28;20229;-69
2022/09/21 10:37:21;;;;;;;4.30;2.40;;;;;;;;;;5015488;28;20180;-69
2022/09/21 10:39:47;;;;;;;10.70;2.70;;;;;;;;;;5015292;28;20341;-69
2022/09/21 10:42:15;;;;;;;7.33;3.20;;;;;;;;;;4997793;28;20298;-69
2022/09/21 10:44:41;;;;;;;10.10;2.80;;;;;;;;;;4997830;28;20314;-69
2022/09/21 10:47:15;;;;;;;9.03;2.73;;;;;;;;;;5015552;28;20207;-69
2022/09/21 10:49:53;;;;;;;6.63;2.23;;;;;;;;;;5015064;28;20171;-69
2022/09/21 10:52:20;;;;;;;7.57;2.27;;;;;;;;;;4997635;28;20183;-69
2022/09/21 10:54:47;;;;;;;3.90;2.13;;;;;;;;;;4997548;28;20187;-69
2022/09/21 10:57:16;;;;;;;8.10;2.20;;;;;;;;;;5015366;28;20226;-69
2022/09/21 10:59:43;;;;;;;8.43;2.30;;;;;;;;;;5015063;28;20184;-68
2022/09/21 11:02:28;;;;;;;4.30;2.53;;;;;;;;;;5014977;28;20230;-69
2022/09/21 11:04:58;;;;;;;6.23;2.67;;;;;;;;;;5015662;28;20204;-69
2022/09/21 11:07:33;;;;;;;6.63;2.60;;;;;;;;;;5015987;28;20164;-69
2022/09/21 11:10:18;;;;;;;4.13;2.17;;;;;;;;;;5015542;28;20218;-69
2022/09/21 11:13:11;;;;;;;4.17;1.73;;;;;;;;;;4998343;28;20190;-69
2022/09/21 11:15:41;;;;;;;4.87;1.90;;;;;;;;;;4997382;28;20246;-69
2022/09/21 11:18:16;;;;;;;4.93;2.00;;;;;;;;;;4996992;28;20184;-69
2022/09/21 11:20:47;;;;;;;4.97;2.33;;;;;;;;;;5014908;28;20199;-68
2022/09/21 11:23:13;;;;;;;4.97;1.80;;;;;;;;;;5014581;28;20203;-69
2022/09/21 11:25:57;;;;;;;7.83;1.90;;;;;;;;;;5014542;28;20659;-68
2022/09/21 11:28:28;;;;;;;4.57;2.10;;;;;;;;;;5015158;28;20160;-69
2022/09/21 11:30:54;;;;;;;5.60;2.13;;;;;;;;;;5014586;28;20557;-69
2022/09/21 11:33:31;;;;;;;3.77;1.50;;;;;;;;;;5014759;28;20183;-69
2022/09/21 11:36:22;;;;;;;2.60;1.60;;;;;;;;;;5014378;28;20178;-69
2022/09/21 11:38:55;;;;;;;5.00;1.80;;;;;;;;;;5014630;28;20172;-69
2022/09/21 11:41:34;;;;;;;3.40;1.70;;;;;;;;;;5014254;28;20222;-69
2022/09/21 11:44:19;;;;;;;3.80;1.60;;;;;;;;;;5014516;28;20271;-69
2022/09/21 11:47:00;;;;;;;2.93;2.30;;;;;;;;;;4996545;28;20194;-69
2022/09/21 11:49:32;;;;;;;4.63;1.80;;;;;;;;;;5014254;28;20179;-69
2022/09/21 11:52:12;;;;;;;5.43;2.07;;;;;;;;;;5014369;28;20210;-69
2022/09/21 11:54:47;;;;;;;5.53;2.00;;;;;;;;;;4996487;28;20545;-69
2022/09/21 11:57:17;;;;;;;9.47;2.83;;;;;;;;;;4996436;28;20179;-69
2022/09/21 11:59:49;;;;;;;8.00;2.93;;;;;;;;;;4996384;28;20552;-69
2022/09/21 12:02:30;;;;;;;6.50;2.47;;;;;;;;;;4996370;28;20676;-69
2022/09/21 12:05:14;;;;;;;1.87;1.57;;;;;;;;;;5013967;28;20179;-69
2022/09/21 12:07:57;;;;;;;4.07;1.97;;;;;;;;;;5013882;28;20180;-69
2022/09/21 12:10:33;;;;;;;5.20;2.30;;;;;;;;;;4996226;28;20207;-69
2022/09/21 12:13:05;;;;;;;5.23;2.20;;;;;;;;;;5014305;28;20195;-69
2022/09/21 12:15:37;;;;;;;3.57;1.80;;;;;;;;;;4996377;28;20222;-69
2022/09/21 12:18:16;;;;;;;3.70;2.00;;;;;;;;;;4996257;28;20176;-69
2022/09/21 12:20:51;;;;;;;5.63;2.00;;;;;;;;;;5013071;28;20207;-70
2022/09/21 12:23:21;;;;;;;9.57;2.57;;;;;;;;;;5013864;28;20283;-69
2022/09/21 12:25:50;;;;;;;5.13;1.87;;;;;;;;;;5014242;28;20176;-69
2022/09/21 12:28:24;;;;;;;6.53;2.47;;;;;;;;;;5013927;28;20179;-69
2022/09/21 12:30:53;;;;;;;3.83;2.10;;;;;;;;;;5013425;28;20195;-69
2022/09/21 12:33:24;;;;;;;6.73;2.37;;;;;;;;;;5013792;28;20183;-69
2022/09/21 12:35:54;;;;;;;6.33;3.40;;;;;;;;;;4995813;28;20646;-69
2022/09/21 12:38:23;;;;;;;8.73;3.67;;;;;;;;;;5013938;28;20588;-69
2022/09/21 12:40:50;;;;;;;9.37;3.60;;;;;;;;;;5013480;28;20215;-69
2022/09/21 12:43:35;;;;;;;8.70;3.73;;;;;;;;;;4995767;28;20204;-69
2022/09/21 12:46:03;;;;;;;9.37;4.30;;;;;;;;;;5013767;28;20636;-69
2022/09/21 12:48:32;;;;;;;8.70;3.80;;;;;;;;;;5013905;28;20172;-70
2022/09/21 12:51:01;;;;;;;8.07;3.90;;;;;;;;;;5013299;28;20222;-69
2022/09/21 12:53:29;;;;;;;5.23;3.20;;;;;;;;;;4995691;28;20187;-69
2022/09/21 12:56:14;;;;;;;9.57;3.77;;;;;;;;;;4995623;28;20190;-69
2022/09/21 12:58:58;;;;;;;6.83;3.20;;;;;;;;;;5013694;28;20203;-69
2022/09/21 13:01:27;;;;;;;7.60;3.20;;;;;;;;;;5014762;28;20334;-69
2022/09/21 13:03:56;;;;;;;7.93;2.87;;;;;;;;;;5015163;28;20656;-69
2022/09/21 13:06:48;;;;;;;5.03;2.60;;;;;;;;;;5015857;28;20180;-69
2022/09/21 13:09:16;;;;;;;6.50;2.90;;;;;;;;;;5015567;28;20620;-69
2022/09/21 13:11:58;;;;;;;8.97;3.10;;;;;;;;;;5014242;28;20581;-68
2022/09/21 13:14:26;;;;;;;8.13;3.00;;;;;;;;;;5013430;28;20205;-69
2022/09/21 13:16:57;;;;;;;7.60;3.27;;;;;;;;;;5013602;28;20599;-69
2022/09/21 13:19:24;;;;;;;8.40;2.87;;;;;;;;;;5013693;28;20263;-69
2022/09/21 13:22:13;;;;;;;8.67;2.87;;;;;;;;;;5013335;28;20186;-69
2022/09/21 13:24:41;;;;;;;9.47;3.27;;;;;;;;;;4995732;28;20265;-69
2022/09/21 13:27:07;;;;;;;3.77;2.67;;;;;;;;;;5013524;28;20176;-69
2022/09/21 13:29:34;;;;;;;4.70;3.00;;;;;;;;;;5013091;28;20177;-69
2022/09/21 13:32:20;;;;;;;6.83;3.50;;;;;;;;;;5014778;28;20202;-69
2022/09/21 13:34:49;;;;;;;6.30;3.07;;;;;;;;;;5017073;28;20165;-69
2022/09/21 13:37:18;;;;;;;8.03;3.27;;;;;;;;;;4999099;28;20238;-69
2022/09/21 13:39:47;;;;;;;6.57;2.90;;;;;;;;;;4998968;28;20172;-69
2022/09/21 13:42:28;;;;;;;5.73;2.93;;;;;;;;;;5016789;28;20196;-69
2022/09/21 13:44:56;;;;;;;8.17;3.17;;;;;;;;;;5016640;28;20187;-69
2022/09/21 13:47:40;;;;;;;6.47;3.70;;;;;;;;;;5016545;28;20172;-69
2022/09/21 13:50:25;;;;;;;6.63;2.80;;;;;;;;;;4998679;28;20581;-69
2022/09/21 13:52:58;;;;;;;8.13;3.17;;;;;;;;;;5016526;28;20229;-69
2022/09/21 13:55:28;;;;;;;7.37;3.70;;;;;;;;;;5016493;28;20176;-69
2022/09/21 13:57:55;;;;;;;9.80;3.07;;;;;;;;;;5016369;28;20172;-69
2022/09/21 14:00:28;;;;;;;7.23;3.40;;;;;;;;;;5016125;28;20202;-69
2022/09/21 14:03:00;;;;;;;7.17;3.67;;;;;;;;;;5016196;28;20198;-69
2022/09/21 14:05:26;;;;;;;7.03;3.27;;;;;;;;;;4998639;28;20740;-69
2022/09/21 14:07:57;;;;;;;6.07;2.67;;;;;;;;;;5016359;28;20259;-70
2022/09/21 14:10:24;;;;;;;6.80;2.00;;;;;;;;;;4998706;28;20254;-70
2022/09/21 14:12:50;;;;;;;4.00;1.97;;;;;;;;;;4998863;28;20537;-69
2022/09/21 14:15:17;;;;;;;3.87;2.00;;;;;;;;;;5016375;28;20187;-69
2022/09/21 14:17:44;;;;;;;6.30;2.17;;;;;;;;;;5015912;28;20728;-69
2022/09/21 14:20:27;;;;;;;5.50;2.60;;;;;;;;;;5015948;28;20203;-69
2022/09/21 14:23:10;;;;;;;9.17;2.40;;;;;;;;;;5015787;28;20203;-69
2022/09/21 14:25:51;;;;;;;4.07;2.07;;;;;;;;;;5015704;28;20207;-69
2022/09/21 14:28:26;;;;;;;6.13;2.30;;;;;;;;;;5015741;28;20180;-69
2022/09/21 14:30:57;;;;;;;4.60;2.43;;;;;;;;;;4998080;28;20281;-69
2022/09/21 14:33:32;;;;;;;5.80;2.00;;;;;;;;;;5015622;28;20180;-69
2022/09/21 14:36:00;;;;;;;3.17;1.90;;;;;;;;;;4998012;28;20183;-69
2022/09/21 14:38:28;;;;;;;4.77;2.20;;;;;;;;;;5015522;28;20670;-69
2022/09/21 14:41:00;;;;;;;8.27;2.57;;;;;;;;;;5015562;28;20271;-69
2022/09/21 14:43:36;;;;;;;4.40;2.40;;;;;;;;;;5014580;28;20563;-69
2022/09/21 14:46:09;;;;;;;4.07;1.93;;;;;;;;;;4997811;28;20174;-69
2022/09/21 14:48:35;;;;;;;4.90;2.27;;;;;;;;;;5015674;28;20171;-69
2022/09/21 14:51:21;;;;;;;3.87;1.90;;;;;;;;;;4997734;28;20750;-69
2022/09/21 14:53:47;;;;;;;4.10;2.00;;;;;;;;;;4997603;28;20176;-69
2022/09/21 14:56:24;;;;;;;5.90;2.13;;;;;;;;;;4997713;28;20194;-69